createdAt,value
2022-10-26T00:01:04.980Z,13.29
2022-10-26T00:03:33.072Z,13.40
2022-10-26T00:06:08.336Z,13.23
2022-10-26T00:08:36.350Z,13.20
2022-10-26T00:11:04.600Z,13.17
2022-10-26T00:13:33.265Z,13.09
2022-10-26T00:16:01.299Z,13.01
2022-10-26T00:18:29.650Z,13.02
2022-10-26T00:21:04.140Z,13.12
2022-10-26T00:23:33.827Z,13.05
2022-10-26T00:26:02.495Z,12.98
2022-10-26T00:28:30.632Z,13.03
2022-10-26T00:31:02.483Z,13.02
2022-10-26T00:33:30.939Z,13.07
2022-10-26T00:35:59.380Z,13.09
2022-10-26T00:38:27.284Z,12.95
2022-10-26T00:43:39.338Z,12.83
2022-10-26T00:46:15.089Z,12.80
2022-10-26T00:48:46.918Z,12.78
2022-10-26T00:51:24.260Z,12.84
2022-10-26T00:53:53.730Z,12.87
2022-10-26T00:56:23.741Z,12.84
2022-10-26T00:58:52.657Z,12.80
2022-10-26T01:01:20.677Z,12.83
2022-10-26T01:03:49.638Z,12.91
2022-10-26T01:06:17.671Z,13.04
2022-10-26T01:08:45.958Z,12.96
2022-10-26T01:11:14.388Z,12.92
2022-10-26T01:13:47.266Z,12.74
2022-10-26T01:16:38.323Z,12.69
2022-10-26T01:19:37.623Z,12.77
2022-10-26T01:22:11.937Z,12.79
2022-10-26T01:24:54.753Z,12.69
2022-10-26T01:27:30.047Z,12.61
2022-10-26T01:30:26.221Z,12.52
2022-10-26T01:33:10.720Z,12.56
2022-10-26T01:35:46.138Z,12.47
2022-10-26T01:38:21.783Z,12.41
2022-10-26T01:40:59.494Z,12.43
2022-10-26T01:43:32.340Z,12.43
2022-10-26T01:46:02.213Z,12.40
2022-10-26T01:48:31.219Z,12.33
2022-10-26T01:51:00.262Z,12.37
2022-10-26T01:53:28.851Z,12.40
2022-10-26T01:55:57.655Z,12.41
2022-10-26T01:58:54.807Z,12.36
2022-10-26T02:01:42.893Z,12.46
2022-10-26T02:04:26.590Z,12.46
2022-10-26T02:07:02.584Z,12.32
2022-10-26T02:09:39.616Z,12.23
2022-10-26T02:12:16.708Z,12.19
2022-10-26T02:14:51.022Z,12.21
2022-10-26T02:17:29.029Z,12.24
2022-10-26T02:20:02.982Z,12.25
2022-10-26T02:22:36.003Z,12.26
2022-10-26T02:25:09.010Z,12.28
2022-10-26T02:27:43.537Z,12.26
2022-10-26T02:30:13.526Z,12.15
2022-10-26T02:32:48.671Z,12.09
2022-10-26T02:35:18.695Z,12.09
2022-10-26T02:37:49.436Z,12.13
2022-10-26T02:40:20.380Z,12.10
2022-10-26T02:42:51.260Z,12.07
2022-10-26T02:45:24.067Z,12.03
2022-10-26T02:47:55.619Z,12.10
2022-10-26T02:50:30.905Z,12.12
2022-10-26T02:53:09.470Z,12.02
2022-10-26T02:55:44.108Z,11.98
2022-10-26T02:58:17.856Z,11.90
2022-10-26T03:00:47.222Z,11.95
2022-10-26T03:03:17.374Z,11.88
2022-10-26T03:05:45.339Z,11.83
2022-10-26T03:08:13.346Z,11.84
2022-10-26T03:10:44.208Z,12.08
2022-10-26T03:13:13.381Z,12.03
2022-10-26T03:15:41.369Z,11.89
2022-10-26T03:18:09.691Z,11.84
2022-10-26T03:20:39.076Z,11.79
2022-10-26T03:23:06.991Z,11.76
2022-10-26T03:25:34.920Z,11.87
2022-10-26T03:28:04.836Z,11.80
2022-10-26T03:30:32.891Z,11.66
2022-10-26T03:33:00.816Z,11.64
2022-10-26T03:35:28.798Z,11.72
2022-10-26T03:37:58.161Z,11.77
2022-10-26T03:40:26.177Z,11.79
2022-10-26T03:42:54.136Z,11.70
2022-10-26T03:45:22.074Z,11.57
2022-10-26T03:47:51.216Z,11.49
2022-10-26T03:50:20.779Z,11.54
2022-10-26T03:52:49.988Z,11.51
2022-10-26T03:55:19.587Z,11.40
2022-10-26T03:57:47.676Z,11.39
2022-10-26T04:00:17.699Z,11.36
2022-10-26T04:02:48.712Z,11.34
2022-10-26T04:05:17.403Z,11.36
2022-10-26T04:07:45.321Z,11.39
2022-10-26T04:10:13.220Z,11.50
2022-10-26T04:12:42.574Z,11.45
2022-10-26T04:15:11.305Z,11.40
2022-10-26T04:17:39.350Z,11.42
2022-10-26T04:20:08.834Z,11.32
2022-10-26T04:22:36.787Z,11.31
2022-10-26T04:25:05.004Z,11.29
2022-10-26T04:27:33.036Z,11.26
2022-10-26T04:30:02.319Z,11.29
2022-10-26T04:32:30.253Z,11.32
2022-10-26T04:34:58.227Z,11.43
2022-10-26T04:37:26.128Z,11.39
2022-10-26T04:39:54.096Z,11.28
2022-10-26T04:42:22.093Z,11.24
2022-10-26T04:44:50.055Z,11.19
2022-10-26T04:47:19.441Z,11.21
2022-10-26T04:49:47.328Z,11.24
2022-10-26T04:52:15.724Z,11.27
2022-10-26T04:54:43.753Z,11.30
2022-10-26T04:57:11.842Z,11.29
2022-10-26T04:59:39.756Z,11.25
2022-10-26T05:02:07.685Z,11.26
2022-10-26T05:04:37.097Z,11.28
2022-10-26T05:07:05.076Z,11.27
2022-10-26T05:09:33.095Z,11.29
2022-10-26T05:12:01.029Z,11.28
2022-10-26T05:14:28.969Z,11.41
2022-10-26T05:16:57.964Z,11.38
2022-10-26T05:19:25.919Z,11.37
2022-10-26T05:21:55.313Z,11.42
2022-10-26T05:24:23.366Z,11.36
2022-10-26T05:26:51.286Z,11.33
2022-10-26T05:29:19.304Z,11.28
2022-10-26T05:31:47.233Z,11.27
2022-10-26T05:34:15.163Z,11.23
2022-10-26T05:36:43.162Z,11.23
2022-10-26T05:39:12.556Z,11.23
2022-10-26T05:41:40.484Z,11.27
2022-10-26T05:44:08.375Z,11.27
2022-10-26T05:46:36.767Z,11.46
2022-10-26T05:49:04.763Z,11.45
2022-10-26T05:51:34.041Z,11.45
2022-10-26T05:54:02.239Z,11.51
2022-10-26T05:56:38.201Z,11.52
2022-10-26T05:59:11.744Z,11.56
2022-10-26T06:01:53.241Z,11.66
2022-10-26T06:04:31.085Z,11.66
2022-10-26T06:07:00.471Z,11.66
2022-10-26T06:09:28.908Z,11.78
2022-10-26T06:11:58.978Z,11.94
2022-10-26T06:14:27.315Z,12.06
2022-10-26T06:17:09.097Z,12.09
2022-10-26T06:20:03.237Z,12.17
2022-10-26T06:22:43.954Z,12.27
2022-10-26T06:25:22.519Z,12.38
2022-10-26T06:28:02.308Z,12.52
2022-10-26T06:30:30.418Z,12.62
2022-10-26T06:33:06.155Z,12.74
2022-10-26T06:35:52.463Z,13.01
2022-10-26T06:38:22.719Z,13.20
2022-10-26T06:40:53.928Z,13.58
2022-10-26T06:43:26.596Z,14.02
2022-10-26T06:46:05.130Z,14.30
2022-10-26T06:48:48.911Z,14.59
2022-10-26T06:51:18.413Z,14.65
2022-10-26T06:53:56.494Z,14.76
2022-10-26T06:56:24.821Z,14.92
2022-10-26T06:58:57.118Z,15.11
2022-10-26T07:01:25.284Z,15.55
2022-10-26T07:03:53.261Z,15.81
2022-10-26T07:06:21.243Z,15.88
2022-10-26T07:08:49.351Z,15.92
2022-10-26T07:11:17.293Z,16.01
2022-10-26T07:13:45.208Z,16.41
2022-10-26T07:16:14.532Z,16.52
2022-10-26T07:18:42.858Z,16.65
2022-10-26T07:21:10.899Z,16.91
2022-10-26T07:23:38.864Z,17.19
2022-10-26T07:26:07.160Z,17.56
2022-10-26T07:28:36.607Z,18.39
2022-10-26T07:31:05.550Z,18.89
2022-10-26T07:33:36.950Z,19.07
2022-10-26T07:36:10.960Z,19.41
2022-10-26T07:38:39.408Z,19.29
2022-10-26T07:41:23.429Z,19.06
2022-10-26T07:43:57.859Z,19.58
2022-10-26T07:46:27.731Z,19.71
2022-10-26T07:49:11.918Z,20.30
2022-10-26T07:51:42.695Z,20.79
2022-10-26T07:54:12.718Z,21.17
2022-10-26T07:56:54.349Z,21.57
2022-10-26T07:59:31.520Z,21.73
2022-10-26T08:02:07.158Z,22.14
2022-10-26T08:04:39.754Z,22.58
2022-10-26T08:07:07.628Z,22.74
2022-10-26T08:09:35.592Z,22.80
2022-10-26T08:12:03.619Z,23.32
2022-10-26T08:14:37.456Z,23.65
2022-10-26T08:17:14.559Z,23.71
2022-10-26T08:19:52.449Z,23.95
2022-10-26T08:22:20.340Z,24.38
2022-10-26T08:24:59.346Z,24.69
2022-10-26T08:27:29.353Z,25.08
2022-10-26T08:32:59.684Z,25.18
2022-10-26T08:35:29.284Z,25.40
2022-10-26T08:37:57.416Z,25.49
2022-10-26T08:40:29.248Z,25.77
2022-10-26T08:43:02.108Z,26.13
2022-10-26T08:45:37.078Z,26.15
2022-10-26T08:48:12.574Z,26.20
2022-10-26T08:50:48.197Z,26.05
2022-10-26T08:53:22.177Z,26.00
2022-10-26T08:55:54.511Z,26.53
2022-10-26T08:58:27.805Z,26.76
2022-10-26T09:00:55.970Z,26.62
2022-10-26T09:03:23.945Z,26.82
2022-10-26T09:06:10.938Z,27.24
2022-10-26T09:08:51.320Z,27.04
2022-10-26T09:11:30.168Z,27.36
2022-10-26T09:14:11.097Z,27.64
2022-10-26T09:16:49.194Z,27.90
2022-10-26T09:20:00.372Z,27.37
2022-10-26T09:22:41.301Z,27.61
2022-10-26T09:25:18.931Z,28.07
2022-10-26T09:27:50.085Z,28.32
2022-10-26T09:30:20.908Z,28.17
2022-10-26T09:32:51.125Z,27.96
2022-10-26T09:35:23.430Z,28.29
2022-10-26T09:37:57.351Z,28.56
2022-10-26T09:40:30.673Z,28.67
2022-10-26T09:43:02.531Z,28.71
2022-10-26T09:45:33.868Z,28.94
2022-10-26T09:48:08.546Z,28.49
2022-10-26T09:50:40.026Z,28.96
2022-10-26T09:53:09.985Z,28.84
2022-10-26T09:55:44.092Z,28.88
2022-10-26T09:58:16.312Z,29.10
2022-10-26T10:00:46.075Z,29.29
2022-10-26T10:03:21.846Z,28.99
2022-10-26T10:05:51.718Z,28.78
2022-10-26T10:08:23.650Z,29.00
2022-10-26T10:10:56.804Z,29.36
2022-10-26T10:13:27.649Z,29.44
2022-10-26T10:15:57.972Z,29.14
2022-10-26T10:18:26.093Z,28.93
2022-10-26T10:20:56.693Z,29.24
2022-10-26T10:23:31.784Z,29.40
2022-10-26T10:26:02.421Z,29.37
2022-10-26T10:28:31.501Z,29.84
2022-10-26T10:31:00.890Z,29.87
2022-10-26T10:33:40.390Z,29.87
2022-10-26T10:36:12.818Z,30.06
2022-10-26T10:38:44.591Z,29.58
2022-10-26T10:41:22.761Z,30.04
2022-10-26T10:43:54.725Z,29.77
2022-10-26T10:46:25.888Z,30.06
2022-10-26T10:49:01.852Z,30.13
2022-10-26T10:51:31.551Z,30.16
2022-10-26T10:54:00.859Z,29.94
2022-10-26T10:56:34.773Z,30.05
2022-10-26T10:59:25.172Z,30.23
2022-10-26T11:02:13.934Z,30.35
2022-10-26T11:04:58.237Z,30.14
2022-10-26T11:07:29.421Z,29.95
2022-10-26T11:10:05.056Z,29.65
2022-10-26T11:12:37.570Z,29.40
2022-10-26T11:15:09.939Z,29.24
2022-10-26T11:17:45.507Z,29.16
2022-10-26T11:20:17.940Z,29.50
2022-10-26T11:22:58.595Z,29.80
2022-10-26T11:25:32.142Z,29.92
2022-10-26T11:28:05.999Z,30.26
2022-10-26T11:30:37.745Z,30.43
2022-10-26T11:33:14.633Z,30.54
2022-10-26T11:35:48.307Z,30.45
2022-10-26T11:38:32.936Z,30.78
2022-10-26T11:41:20.301Z,30.68
2022-10-26T11:43:49.872Z,30.70
2022-10-26T11:46:22.415Z,30.70
2022-10-26T11:48:58.020Z,30.59
2022-10-26T11:51:40.056Z,30.50
2022-10-26T11:54:14.719Z,30.11
2022-10-26T11:56:48.432Z,29.97
2022-10-26T11:59:21.169Z,29.71
2022-10-26T12:01:51.347Z,29.45
2022-10-26T12:04:22.650Z,29.30
2022-10-26T12:06:52.324Z,29.02
2022-10-26T12:09:25.132Z,28.84
2022-10-26T12:12:02.912Z,28.59
2022-10-26T12:14:41.052Z,28.14
2022-10-26T12:17:14.597Z,27.60
2022-10-26T12:19:49.024Z,28.13
2022-10-26T12:22:20.160Z,28.16
2022-10-26T12:25:11.135Z,28.49
2022-10-26T12:27:55.088Z,28.16
2022-10-26T12:30:29.112Z,27.82
2022-10-26T12:32:59.041Z,27.38
2022-10-26T12:35:44.055Z,26.97
2022-10-26T12:38:47.335Z,26.79
2022-10-26T12:41:26.808Z,26.51
2022-10-26T12:44:09.018Z,26.24
2022-10-26T12:46:42.976Z,26.13
2022-10-26T12:49:58.694Z,25.87
2022-10-26T12:52:50.983Z,25.70
2022-10-26T12:55:46.641Z,25.51
2022-10-26T12:58:39.644Z,25.57
2022-10-26T13:01:29.311Z,25.56
2022-10-26T13:04:06.555Z,25.28
2022-10-26T13:06:47.985Z,25.61
2022-10-26T13:09:20.255Z,25.72
2022-10-26T13:11:51.289Z,25.60
2022-10-26T13:14:24.483Z,25.40
2022-10-26T13:16:54.260Z,25.21
2022-10-26T13:19:27.180Z,25.23
2022-10-26T13:21:59.070Z,25.12
2022-10-26T13:24:29.996Z,25.15
2022-10-26T13:27:26.953Z,25.00
2022-10-26T13:30:46.838Z,25.15
2022-10-26T13:33:34.030Z,25.17
2022-10-26T13:36:03.543Z,25.33
2022-10-26T13:38:34.113Z,25.53
2022-10-26T13:41:08.919Z,25.45
2022-10-26T13:43:38.715Z,25.62
2022-10-26T13:46:07.335Z,25.97
2022-10-26T13:48:41.202Z,26.28
2022-10-26T13:51:21.776Z,26.60
2022-10-26T13:53:54.267Z,26.56
2022-10-26T13:56:31.787Z,26.63
2022-10-26T13:59:03.687Z,26.71
2022-10-26T14:01:32.545Z,26.81
2022-10-26T14:04:15.803Z,26.77
2022-10-26T14:06:49.364Z,26.59
2022-10-26T14:09:18.964Z,26.45
2022-10-26T14:11:50.779Z,26.50
2022-10-26T14:14:24.129Z,26.46
2022-10-26T14:16:54.503Z,26.48
2022-10-26T14:19:29.583Z,26.26
2022-10-26T14:21:58.722Z,26.39
2022-10-26T14:24:45.857Z,26.42
2022-10-26T14:27:17.033Z,26.39
2022-10-26T14:29:49.927Z,26.28
2022-10-26T14:32:29.730Z,25.98
2022-10-26T14:34:59.389Z,25.94
2022-10-26T14:37:38.565Z,26.01
2022-10-26T14:40:08.145Z,25.70
2022-10-26T14:42:42.686Z,25.57
2022-10-26T14:45:29.692Z,25.41
2022-10-26T14:48:06.481Z,25.33
2022-10-26T14:50:36.585Z,25.04
2022-10-26T14:53:15.160Z,24.87
2022-10-26T14:55:49.408Z,24.69
2022-10-26T14:58:25.389Z,24.44
2022-10-26T15:01:35.724Z,24.33
2022-10-26T15:04:07.120Z,24.01
2022-10-26T15:06:47.257Z,23.88
2022-10-26T15:09:45.841Z,23.58
2022-10-26T15:12:28.455Z,23.38
2022-10-26T15:14:57.859Z,23.04
2022-10-26T15:17:32.112Z,22.83
2022-10-26T15:20:04.961Z,22.67
2022-10-26T15:22:35.325Z,22.45
2022-10-26T15:25:06.286Z,22.31
2022-10-26T15:27:34.854Z,22.21
2022-10-26T15:30:26.219Z,21.97
2022-10-26T15:32:56.394Z,21.78
2022-10-26T15:35:28.137Z,21.60
2022-10-26T15:37:58.706Z,21.56
2022-10-26T15:40:29.180Z,21.40
2022-10-26T15:43:00.491Z,21.21
2022-10-26T15:45:31.390Z,21.07
2022-10-26T15:48:01.543Z,20.90
2022-10-26T15:50:30.159Z,20.76
2022-10-26T15:53:02.601Z,20.77
2022-10-26T15:55:31.771Z,20.53
2022-10-26T15:57:59.670Z,20.34
2022-10-26T16:00:27.762Z,20.21
2022-10-26T16:02:55.860Z,20.19
2022-10-26T16:05:23.862Z,20.05
2022-10-26T16:07:52.235Z,19.99
2022-10-26T16:10:23.840Z,19.94
2022-10-26T16:12:51.985Z,19.85
2022-10-26T16:15:21.937Z,19.64
2022-10-26T16:17:50.706Z,19.55
2022-10-26T16:20:22.852Z,19.61
2022-10-26T16:22:52.373Z,19.45
2022-10-26T16:25:24.914Z,19.47
2022-10-26T16:27:53.945Z,19.29
2022-10-26T16:30:24.865Z,19.02
2022-10-26T16:32:56.154Z,19.01
2022-10-26T16:35:24.566Z,18.97
2022-10-26T16:37:52.505Z,19.04
2022-10-26T16:40:20.484Z,18.90
2022-10-26T16:42:50.127Z,18.71
2022-10-26T16:45:18.291Z,18.61
2022-10-26T16:47:46.219Z,18.56
2022-10-26T16:50:14.618Z,18.56
2022-10-26T16:52:42.644Z,18.59
2022-10-26T16:55:11.140Z,18.53
2022-10-26T16:57:39.512Z,18.39
2022-10-26T17:00:10.069Z,18.40
2022-10-26T17:02:38.298Z,18.34
2022-10-26T17:05:07.579Z,18.32
2022-10-26T17:07:35.946Z,18.21
2022-10-26T17:10:04.008Z,18.16
2022-10-26T17:12:32.262Z,18.10
2022-10-26T17:15:01.494Z,18.20
2022-10-26T17:17:30.862Z,18.30
2022-10-26T17:19:59.360Z,18.14
2022-10-26T17:22:27.438Z,18.13
2022-10-26T17:24:55.377Z,18.15
2022-10-26T17:27:23.896Z,18.00
2022-10-26T17:29:51.948Z,17.97
2022-10-26T17:32:19.899Z,18.03
2022-10-26T17:34:49.240Z,17.90
2022-10-26T17:37:17.292Z,17.88
2022-10-26T17:39:45.252Z,17.90
2022-10-26T17:42:13.164Z,17.78
2022-10-26T17:44:41.106Z,17.87
2022-10-26T17:47:09.891Z,17.70
2022-10-26T17:49:37.606Z,17.72
2022-10-26T17:52:07.072Z,17.63
2022-10-26T17:54:35.199Z,17.71
2022-10-26T17:57:10.858Z,17.47
2022-10-26T17:59:42.516Z,17.36
2022-10-26T18:02:11.100Z,17.13
2022-10-26T18:04:41.223Z,17.06
2022-10-26T18:07:10.548Z,17.01
2022-10-26T18:09:38.875Z,16.97
2022-10-26T18:12:07.359Z,16.92
2022-10-26T18:14:35.317Z,16.86
2022-10-26T18:17:03.316Z,16.85
2022-10-26T18:19:31.245Z,16.87
2022-10-26T18:21:59.628Z,16.74
2022-10-26T18:24:28.956Z,16.73
2022-10-26T18:26:56.987Z,16.65
2022-10-26T18:29:24.888Z,16.59
2022-10-26T18:31:52.878Z,16.56
2022-10-26T18:34:21.244Z,16.61
2022-10-26T18:36:49.171Z,16.66
2022-10-26T18:39:19.627Z,16.82
2022-10-26T18:41:54.383Z,16.75
2022-10-26T18:44:25.841Z,16.64
2022-10-26T18:46:55.392Z,16.58
2022-10-26T18:49:26.734Z,16.46
2022-10-26T18:51:54.749Z,16.40
2022-10-26T18:54:22.854Z,16.38
2022-10-26T18:56:52.161Z,16.45
2022-10-26T18:59:20.187Z,16.39
2022-10-26T19:01:50.230Z,16.54
2022-10-26T19:04:18.788Z,16.67
2022-10-26T19:06:48.840Z,16.73
2022-10-26T19:09:17.649Z,16.54
2022-10-26T19:11:45.943Z,16.55
2022-10-26T19:14:15.304Z,16.50
2022-10-26T19:16:47.186Z,16.42
2022-10-26T19:19:16.795Z,16.42
2022-10-26T19:21:45.725Z,16.47
2022-10-26T19:24:15.357Z,16.52
2022-10-26T19:26:44.203Z,16.36
2022-10-26T19:29:15.362Z,16.24
2022-10-26T19:31:46.578Z,16.11
2022-10-26T19:34:16.119Z,16.04
2022-10-26T19:36:46.354Z,16.02
2022-10-26T19:39:15.516Z,16.08
2022-10-26T19:41:43.690Z,16.23
2022-10-26T19:44:13.723Z,16.34
2022-10-26T19:46:41.755Z,16.39
2022-10-26T19:49:12.542Z,16.35
2022-10-26T19:51:40.838Z,16.46
2022-10-26T19:54:08.797Z,16.33
2022-10-26T19:56:38.090Z,16.23
2022-10-26T19:59:07.147Z,16.24
2022-10-26T20:01:35.011Z,16.17
2022-10-26T20:04:03.330Z,16.15
2022-10-26T20:06:33.074Z,16.23
2022-10-26T20:09:02.491Z,16.22
2022-10-26T20:11:32.307Z,16.21
2022-10-26T20:14:00.591Z,16.18
2022-10-26T20:16:28.638Z,16.06
2022-10-26T20:18:56.578Z,16.05
2022-10-26T20:21:24.514Z,16.07
2022-10-26T20:23:53.818Z,16.12
2022-10-26T20:26:25.192Z,16.23
2022-10-26T20:28:55.504Z,16.16
2022-10-26T20:31:23.520Z,16.09
2022-10-26T20:33:52.850Z,16.02
2022-10-26T20:36:21.474Z,15.90
2022-10-26T20:38:50.012Z,15.96
2022-10-26T20:41:19.927Z,15.84
2022-10-26T20:43:48.503Z,15.62
2022-10-26T20:46:23.508Z,15.55
2022-10-26T20:48:52.509Z,15.50
2022-10-26T20:51:23.822Z,15.60
2022-10-26T20:54:03.214Z,15.65
2022-10-26T20:56:34.401Z,15.60
2022-10-26T20:59:04.956Z,15.69
2022-10-26T21:01:34.391Z,15.64
2022-10-26T21:04:04.145Z,15.66
2022-10-26T21:06:39.872Z,15.54
2022-10-26T21:09:14.804Z,15.41
2022-10-26T21:11:50.219Z,15.25
2022-10-26T21:14:18.478Z,15.23
2022-10-26T21:16:46.425Z,15.11
2022-10-26T21:19:14.423Z,15.13
2022-10-26T21:21:46.236Z,15.14
2022-10-26T21:24:14.258Z,15.07
2022-10-26T21:26:43.510Z,15.16
2022-10-26T21:29:15.554Z,15.22
2022-10-26T21:31:43.651Z,15.10
2022-10-26T21:34:11.748Z,15.17
2022-10-26T21:36:39.988Z,15.08
2022-10-26T21:39:07.948Z,14.99
2022-10-26T21:41:37.255Z,14.99
2022-10-26T21:44:09.315Z,14.98
2022-10-26T21:46:39.733Z,14.95
2022-10-26T21:49:07.716Z,14.92
2022-10-26T21:51:36.091Z,14.90
2022-10-26T21:54:04.794Z,14.87
2022-10-26T21:56:32.794Z,14.80
2022-10-26T21:59:01.685Z,14.75
2022-10-26T22:01:29.725Z,14.67
2022-10-26T22:03:59.141Z,14.66
2022-10-26T22:06:27.176Z,14.58
2022-10-26T22:08:55.213Z,14.54
2022-10-26T22:11:25.051Z,14.73
2022-10-26T22:13:54.032Z,14.74
2022-10-26T22:16:23.737Z,14.63
2022-10-26T22:18:53.346Z,14.61
2022-10-26T22:21:24.774Z,14.63
2022-10-26T22:23:56.143Z,14.56
2022-10-26T22:26:27.145Z,14.47
2022-10-26T22:28:57.379Z,14.46
2022-10-26T22:31:27.414Z,14.40
2022-10-26T22:33:58.513Z,14.39
2022-10-26T22:36:30.568Z,14.42
2022-10-26T22:38:58.674Z,14.32
2022-10-26T22:41:27.160Z,14.36
2022-10-26T22:43:55.072Z,14.31
2022-10-26T22:46:24.715Z,14.27
2022-10-26T22:48:55.552Z,14.10
2022-10-26T22:51:29.386Z,14.03
2022-10-26T22:54:01.630Z,14.01
2022-10-26T22:56:33.776Z,13.94
2022-10-26T22:59:01.723Z,13.93
2022-10-26T23:01:31.790Z,13.86
2022-10-26T23:04:00.694Z,13.76
2022-10-26T23:06:33.726Z,13.63
2022-10-26T23:09:03.068Z,13.63
2022-10-26T23:11:34.375Z,13.60
2022-10-26T23:14:03.701Z,13.76
2022-10-26T23:16:33.997Z,13.82
2022-10-26T23:19:15.197Z,13.90
2022-10-26T23:21:45.104Z,13.60
2022-10-26T23:24:14.515Z,13.52
2022-10-26T23:26:42.570Z,13.54
2022-10-26T23:29:10.499Z,13.43
2022-10-26T23:31:44.284Z,13.43
2022-10-26T23:34:15.078Z,13.61
2022-10-26T23:36:42.959Z,13.39
2022-10-26T23:39:18.195Z,13.39
2022-10-26T23:41:46.148Z,13.31
2022-10-26T23:44:14.360Z,13.32
2022-10-26T23:46:42.283Z,13.25
2022-10-26T23:49:10.228Z,13.20
2022-10-26T23:51:38.126Z,13.14
2022-10-26T23:54:06.345Z,13.09
2022-10-26T23:56:35.685Z,13.07
2022-10-26T23:59:07.402Z,13.13
